createdAt,value
2023-02-15T00:00:11.316Z,101377.94
2023-02-15T00:02:38.883Z,101370.78
2023-02-15T00:05:07.091Z,101367.31
2023-02-15T00:07:34.515Z,101362.53
2023-02-15T00:10:02.038Z,101354.22
2023-02-15T00:12:29.491Z,101355.44
2023-02-15T00:14:58.733Z,101353.94
2023-02-15T00:20:26.366Z,101350.41
2023-02-15T00:22:53.811Z,101347.53
2023-02-15T00:25:24.470Z,101341.69
2023-02-15T00:27:52.078Z,101339.28
2023-02-15T00:30:21.029Z,101347.31
2023-02-15T00:32:49.244Z,101343.16
2023-02-15T00:35:16.939Z,101340.50
2023-02-15T00:40:54.263Z,101341.38
2023-02-15T00:43:22.000Z,101341.13
2023-02-15T00:45:50.974Z,101342.38
2023-02-15T00:48:19.427Z,101340.13
2023-02-15T00:50:47.105Z,101333.16
2023-02-15T00:56:17.727Z,101338.25
2023-02-15T00:58:45.236Z,101335.22
2023-02-15T01:01:15.908Z,101336.53
2023-02-15T01:03:43.730Z,101336.22
2023-02-15T01:06:11.332Z,101336.97
2023-02-15T01:08:39.060Z,101330.22
2023-02-15T01:11:07.477Z,101329.63
2023-02-15T01:13:35.295Z,101327.91
2023-02-15T01:16:03.760Z,101333.00
2023-02-15T01:18:33.038Z,101331.59
2023-02-15T01:21:00.691Z,101332.22
2023-02-15T01:23:28.289Z,101333.69
2023-02-15T01:25:55.710Z,101328.78
2023-02-15T01:28:23.165Z,101328.78
2023-02-15T01:33:54.704Z,101323.88
2023-02-15T01:36:22.163Z,101308.81
2023-02-15T01:38:50.286Z,101306.28
2023-02-15T01:41:24.657Z,101305.97
2023-02-15T01:43:54.545Z,101307.53
2023-02-15T01:46:25.360Z,101296.03
2023-02-15T01:48:56.218Z,101303.16
2023-02-15T01:51:25.798Z,101305.41
2023-02-15T01:53:56.173Z,101304.50
2023-02-15T01:56:26.346Z,101304.81
2023-02-15T02:02:01.924Z,101294.88
2023-02-15T02:04:35.098Z,101296.25
2023-02-15T02:07:02.800Z,101292.56
2023-02-15T02:09:32.683Z,101287.19
2023-02-15T02:14:49.556Z,101288.41
2023-02-15T02:17:24.235Z,101280.25
2023-02-15T02:20:18.053Z,101282.44
2023-02-15T02:23:17.846Z,101282.34
2023-02-15T02:26:10.388Z,101277.69
2023-02-15T02:28:58.071Z,101276.00
2023-02-15T02:31:43.963Z,101280.59
2023-02-15T02:37:21.394Z,101266.81
2023-02-15T02:39:54.368Z,101264.56
2023-02-15T02:42:26.210Z,101272.81
2023-02-15T02:44:58.907Z,101264.06
2023-02-15T02:47:31.470Z,101259.28
2023-02-15T02:50:01.267Z,101257.75
2023-02-15T02:55:31.300Z,101258.84
2023-02-15T02:58:05.296Z,101260.56
2023-02-15T03:00:36.560Z,101262.25
2023-02-15T03:03:06.942Z,101265.72
2023-02-15T03:05:36.135Z,101256.31
2023-02-15T03:08:06.951Z,101253.53
2023-02-15T03:10:36.766Z,101250.00
2023-02-15T03:13:06.012Z,101242.88
2023-02-15T03:15:50.153Z,101245.59
2023-02-15T03:18:19.010Z,101242.81
2023-02-15T03:20:46.763Z,101237.25
2023-02-15T03:23:16.197Z,101238.38
2023-02-15T03:25:48.511Z,101239.00
2023-02-15T03:28:21.322Z,101247.28
2023-02-15T03:30:51.311Z,101240.69
2023-02-15T03:33:19.485Z,101243.81
2023-02-15T03:35:51.350Z,101241.53
2023-02-15T03:38:22.050Z,101239.47
2023-02-15T03:41:09.542Z,101232.84
2023-02-15T03:43:44.752Z,101238.75
2023-02-15T03:46:15.647Z,101237.28
2023-02-15T03:48:45.390Z,101235.72
2023-02-15T03:51:34.092Z,101243.00
2023-02-15T03:54:02.776Z,101237.13
2023-02-15T03:56:31.710Z,101229.38
2023-02-15T03:59:17.497Z,101235.81
2023-02-15T04:01:59.279Z,101228.59
2023-02-15T04:04:30.595Z,101229.53
2023-02-15T04:06:58.078Z,101223.38
2023-02-15T04:09:43.102Z,101222.16
2023-02-15T04:12:11.909Z,101219.44
2023-02-15T04:14:43.025Z,101216.97
2023-02-15T04:17:11.506Z,101211.75
2023-02-15T04:19:56.612Z,101205.25
2023-02-15T04:22:41.660Z,101213.16
2023-02-15T04:25:12.482Z,101221.50
2023-02-15T04:27:42.521Z,101219.81
2023-02-15T04:30:12.143Z,101219.13
2023-02-15T04:32:39.913Z,101218.47
2023-02-15T04:35:08.207Z,101212.94
2023-02-15T04:37:36.109Z,101209.84
2023-02-15T04:40:28.680Z,101209.47
2023-02-15T04:42:57.439Z,101201.88
2023-02-15T04:48:27.534Z,101206.97
2023-02-15T04:50:54.978Z,101202.31
2023-02-15T04:53:22.380Z,101199.44
2023-02-15T04:55:49.830Z,101190.91
2023-02-15T04:58:18.723Z,101185.97
2023-02-15T05:00:46.154Z,101195.50
2023-02-15T05:03:13.564Z,101186.41
2023-02-15T05:05:41.418Z,101177.19
2023-02-15T05:10:57.350Z,101173.44
2023-02-15T05:13:26.651Z,101171.41
2023-02-15T05:15:54.970Z,101174.56
2023-02-15T05:18:23.394Z,101177.47
2023-02-15T05:20:50.994Z,101174.34
2023-02-15T05:23:18.443Z,101177.19
2023-02-15T05:28:39.907Z,101179.03
2023-02-15T05:31:09.416Z,101172.53
2023-02-15T05:33:37.242Z,101167.06
2023-02-15T05:36:05.915Z,101174.38
2023-02-15T05:38:33.789Z,101175.47
2023-02-15T05:41:01.269Z,101180.84
2023-02-15T05:46:39.989Z,101174.63
2023-02-15T05:49:07.412Z,101177.25
2023-02-15T05:51:34.847Z,101171.81
2023-02-15T05:54:02.270Z,101172.09
2023-02-15T05:56:29.694Z,101172.38
2023-02-15T06:02:00.753Z,101177.47
2023-02-15T06:04:28.431Z,101182.16
2023-02-15T06:06:55.856Z,101176.31
2023-02-15T06:12:09.354Z,101177.38
2023-02-15T06:14:36.797Z,101178.84
2023-02-15T06:17:05.558Z,101176.94
2023-02-15T06:19:33.091Z,101182.75
2023-02-15T06:22:00.760Z,101173.66
2023-02-15T06:24:28.240Z,101168.59
2023-02-15T06:29:49.544Z,101164.63
2023-02-15T06:32:18.354Z,101162.34
2023-02-15T06:34:47.085Z,101162.34
2023-02-15T06:37:15.963Z,101167.47
2023-02-15T06:39:43.890Z,101177.91
2023-02-15T06:42:11.310Z,101177.91
2023-02-15T06:44:38.738Z,101171.16
2023-02-15T06:47:06.223Z,101174.28
2023-02-15T06:49:34.971Z,101168.91
2023-02-15T06:52:02.422Z,101165.34
2023-02-15T06:54:29.843Z,101165.72
2023-02-15T06:56:57.328Z,101160.41
2023-02-15T06:59:24.748Z,101160.06
2023-02-15T07:01:52.217Z,101156.56
2023-02-15T07:04:19.770Z,101156.19
2023-02-15T07:09:37.248Z,101167.63
2023-02-15T07:12:22.727Z,101161.13
2023-02-15T07:14:50.274Z,101162.75
2023-02-15T07:17:35.088Z,101164.03
2023-02-15T07:20:03.240Z,101157.72
2023-02-15T07:22:30.678Z,101166.25
2023-02-15T07:27:59.457Z,101163.34
2023-02-15T07:30:26.967Z,101162.16
2023-02-15T07:35:28.514Z,101157.03
2023-02-15T07:37:56.178Z,101154.84
2023-02-15T07:40:24.260Z,101157.22
2023-02-15T07:45:41.844Z,101161.94
2023-02-15T07:48:09.683Z,101154.97
2023-02-15T07:50:37.129Z,101156.47
2023-02-15T07:53:04.861Z,101153.66
2023-02-15T07:58:21.377Z,101148.97
2023-02-15T08:00:59.400Z,101153.63
2023-02-15T08:03:27.824Z,101145.41
2023-02-15T08:05:58.838Z,101136.75
2023-02-15T08:11:34.569Z,101124.41
2023-02-15T08:14:04.807Z,101123.91
2023-02-15T08:16:35.630Z,101124.19
2023-02-15T08:19:05.811Z,101123.47
2023-02-15T08:21:34.169Z,101124.59
2023-02-15T08:24:01.845Z,101115.50
2023-02-15T08:26:32.758Z,101108.56
2023-02-15T08:29:00.993Z,101108.72
2023-02-15T08:31:29.107Z,101103.34
2023-02-15T08:33:59.056Z,101106.22
2023-02-15T08:36:28.414Z,101103.59
2023-02-15T08:38:55.961Z,101091.63
2023-02-15T08:41:25.089Z,101096.13
2023-02-15T08:43:54.913Z,101103.88
2023-02-15T08:46:23.700Z,101093.75
2023-02-15T08:48:51.674Z,101099.25
2023-02-15T08:51:22.207Z,101098.66
2023-02-15T08:53:50.960Z,101092.78
2023-02-15T08:56:19.618Z,101096.47
2023-02-15T09:01:36.839Z,101082.66
2023-02-15T09:04:06.196Z,101088.78
2023-02-15T09:06:35.019Z,101100.03
2023-02-15T09:09:02.934Z,101093.81
2023-02-15T09:11:31.589Z,101095.19
2023-02-15T09:14:01.339Z,101096.44
2023-02-15T09:16:31.449Z,101096.50
2023-02-15T09:18:59.927Z,101091.81
2023-02-15T09:21:28.470Z,101095.28
2023-02-15T09:24:00.556Z,101100.47
2023-02-15T09:26:29.355Z,101097.63
2023-02-15T09:28:58.507Z,101094.47
2023-02-15T09:34:18.685Z,101078.66
2023-02-15T09:36:46.536Z,101084.88
2023-02-15T09:39:16.604Z,101080.53
2023-02-15T09:41:59.161Z,101082.97
2023-02-15T09:44:37.602Z,101082.53
2023-02-15T09:47:42.494Z,101080.59
2023-02-15T09:50:14.785Z,101086.38
2023-02-15T09:55:53.367Z,101079.81
2023-02-15T09:58:27.382Z,101069.63
2023-02-15T10:01:01.091Z,101060.34
2023-02-15T10:03:42.832Z,101066.25
2023-02-15T10:06:27.794Z,101062.16
2023-02-15T10:08:57.066Z,101070.38
2023-02-15T10:11:41.379Z,101061.72
2023-02-15T10:14:29.805Z,101058.50
2023-02-15T10:17:08.243Z,101063.78
2023-02-15T10:22:30.250Z,101065.44
2023-02-15T10:25:12.798Z,101067.22
2023-02-15T10:27:44.079Z,101061.81
2023-02-15T10:30:13.338Z,101064.44
2023-02-15T10:32:53.183Z,101055.41
2023-02-15T10:35:26.404Z,101061.78
2023-02-15T10:38:07.150Z,101047.81
2023-02-15T10:40:43.047Z,101055.34
2023-02-15T10:46:14.517Z,101055.81
2023-02-15T10:48:54.318Z,101048.28
2023-02-15T10:54:27.905Z,101046.31
2023-02-15T10:57:02.812Z,101032.06
2023-02-15T10:59:39.695Z,101036.28
2023-02-15T11:05:21.079Z,101034.19
2023-02-15T11:07:49.991Z,101035.88
2023-02-15T11:10:27.581Z,101023.88
2023-02-15T11:12:57.321Z,101027.25
2023-02-15T11:15:29.116Z,101031.53
2023-02-15T11:17:59.687Z,101026.03
2023-02-15T11:20:31.998Z,101024.63
2023-02-15T11:23:00.141Z,101023.13
2023-02-15T11:25:31.033Z,101015.34
2023-02-15T11:27:58.574Z,101014.78
2023-02-15T11:30:29.544Z,101013.53
2023-02-15T11:32:58.535Z,101010.19
2023-02-15T11:35:31.178Z,101012.44
2023-02-15T11:38:04.649Z,101012.63
2023-02-15T11:40:34.982Z,101015.34
2023-02-15T11:46:04.764Z,101008.19
2023-02-15T11:51:33.621Z,101003.81
2023-02-15T11:54:01.227Z,101004.38
2023-02-15T11:59:32.305Z,100995.34
2023-02-15T12:01:59.751Z,100993.88
2023-02-15T12:04:28.431Z,100988.00
2023-02-15T12:07:02.757Z,100982.34
2023-02-15T12:09:35.802Z,100982.38
2023-02-15T12:12:24.818Z,100979.03
2023-02-15T12:17:53.451Z,100977.16
2023-02-15T12:20:27.349Z,100968.63
2023-02-15T12:26:01.823Z,100957.50
2023-02-15T12:28:34.754Z,100959.38
2023-02-15T12:31:04.797Z,100964.97
2023-02-15T12:33:35.850Z,100959.38
2023-02-15T12:36:06.484Z,100952.97
2023-02-15T12:38:35.230Z,100946.66
2023-02-15T12:41:05.636Z,100948.00
2023-02-15T12:46:37.555Z,100945.00
2023-02-15T12:52:26.364Z,100934.03
2023-02-15T12:54:53.838Z,100928.97
2023-02-15T12:57:28.194Z,100936.56
2023-02-15T12:59:57.378Z,100933.50
2023-02-15T13:02:30.742Z,100927.09
2023-02-15T13:04:59.810Z,100920.16
2023-02-15T13:07:33.186Z,100914.44
2023-02-15T13:10:00.750Z,100914.31
2023-02-15T13:12:31.497Z,100910.13
2023-02-15T13:15:00.324Z,100913.59
2023-02-15T13:17:30.752Z,100910.69
2023-02-15T13:20:01.207Z,100911.56
2023-02-15T13:25:35.449Z,100900.16
2023-02-15T13:28:05.477Z,100899.25
2023-02-15T13:30:36.243Z,100898.84
2023-02-15T13:33:06.290Z,100894.97
2023-02-15T13:35:39.319Z,100892.22
2023-02-15T13:41:07.099Z,100888.91
2023-02-15T13:43:43.496Z,100887.09
2023-02-15T13:46:19.734Z,100878.00
2023-02-15T13:48:56.671Z,100874.63
2023-02-15T13:51:28.698Z,100876.09
2023-02-15T13:54:12.051Z,100874.22
2023-02-15T13:56:50.082Z,100873.31
2023-02-15T13:59:46.524Z,100871.81
2023-02-15T14:05:23.261Z,100863.63
2023-02-15T14:10:49.906Z,100863.50
2023-02-15T14:16:34.214Z,100851.63
2023-02-15T14:19:07.121Z,100854.31
2023-02-15T14:21:38.495Z,100844.47
2023-02-15T14:27:16.801Z,100838.84
2023-02-15T14:29:50.334Z,100832.47
2023-02-15T14:32:22.228Z,100828.00
2023-02-15T14:34:52.855Z,100834.78
2023-02-15T14:37:29.853Z,100840.59
2023-02-15T14:40:17.549Z,100835.81
2023-02-15T14:42:50.054Z,100842.38
2023-02-15T14:45:22.598Z,100838.63
2023-02-15T14:47:55.747Z,100844.47
2023-02-15T14:50:45.290Z,100839.16
2023-02-15T14:56:18.377Z,100834.59
2023-02-15T14:58:58.107Z,100837.78
2023-02-15T15:01:28.508Z,100830.34
2023-02-15T15:03:58.328Z,100834.34
2023-02-15T15:06:28.270Z,100831.25
2023-02-15T15:09:00.343Z,100832.13
2023-02-15T15:11:56.558Z,100827.91
2023-02-15T15:17:48.854Z,100823.34
2023-02-15T15:20:42.820Z,100826.34
2023-02-15T15:23:42.804Z,100829.53
2023-02-15T15:26:25.204Z,100832.03
2023-02-15T15:28:57.608Z,100829.31
2023-02-15T15:34:46.076Z,100820.56
2023-02-15T15:37:31.811Z,100820.25
2023-02-15T15:43:55.675Z,100820.69
2023-02-15T15:46:36.546Z,100814.84
2023-02-15T15:49:05.027Z,100823.88
2023-02-15T15:51:34.180Z,100815.88
2023-02-15T15:54:04.793Z,100821.41
2023-02-15T15:56:35.622Z,100807.75
2023-02-15T15:59:04.819Z,100803.72
2023-02-15T16:04:36.322Z,100802.78
2023-02-15T16:07:16.523Z,100801.19
2023-02-15T16:10:01.032Z,100810.50
2023-02-15T16:12:30.225Z,100806.03
2023-02-15T16:14:57.994Z,100810.53
2023-02-15T16:17:27.346Z,100804.22
2023-02-15T16:19:57.776Z,100809.97
2023-02-15T16:22:27.501Z,100812.56
2023-02-15T16:27:55.015Z,100814.34
2023-02-15T16:30:28.322Z,100820.69
2023-02-15T16:35:56.473Z,100821.00
2023-02-15T16:38:32.974Z,100816.13
2023-02-15T16:41:02.191Z,100811.81
2023-02-15T16:43:32.469Z,100824.81
2023-02-15T16:49:03.180Z,100817.59
2023-02-15T16:51:32.067Z,100814.19
2023-02-15T16:54:05.819Z,100816.72
2023-02-15T16:56:33.880Z,100822.19
2023-02-15T16:59:04.176Z,100806.75
2023-02-15T17:01:33.289Z,100817.75
2023-02-15T17:04:15.131Z,100813.31
2023-02-15T17:06:42.604Z,100800.44
2023-02-15T17:09:19.193Z,100804.41
2023-02-15T17:11:46.633Z,100809.44
2023-02-15T17:17:26.777Z,100806.53
2023-02-15T17:19:55.690Z,100807.38
2023-02-15T17:22:25.014Z,100811.59
2023-02-15T17:25:00.274Z,100818.06
2023-02-15T17:27:29.411Z,100816.13
2023-02-15T17:30:25.548Z,100826.09
2023-02-15T17:32:59.355Z,100814.69
2023-02-15T17:35:27.918Z,100814.94
2023-02-15T17:38:07.136Z,100821.97
2023-02-15T17:40:36.523Z,100821.34
2023-02-15T17:43:04.004Z,100828.47
2023-02-15T17:45:36.260Z,100828.84
2023-02-15T17:48:06.472Z,100825.72
2023-02-15T17:50:34.760Z,100820.81
2023-02-15T17:53:02.857Z,100829.66
2023-02-15T17:55:35.238Z,100825.00
2023-02-15T17:58:04.458Z,100822.13
2023-02-15T18:00:50.220Z,100823.44
2023-02-15T18:03:36.637Z,100832.94
2023-02-15T18:06:21.797Z,100827.28
2023-02-15T18:09:08.520Z,100818.44
2023-02-15T18:11:37.700Z,100817.88
2023-02-15T18:14:06.306Z,100822.44
2023-02-15T18:19:37.956Z,100817.25
2023-02-15T18:22:06.771Z,100827.53
2023-02-15T18:24:34.214Z,100817.56
2023-02-15T18:27:01.841Z,100821.53
2023-02-15T18:32:19.426Z,100819.81
2023-02-15T18:34:48.796Z,100812.19
2023-02-15T18:40:04.904Z,100806.78
2023-02-15T18:42:35.072Z,100811.91
2023-02-15T18:45:05.774Z,100803.53
2023-02-15T18:47:33.195Z,100810.22
2023-02-15T18:50:01.927Z,100810.00
2023-02-15T18:52:33.972Z,100818.56
2023-02-15T18:55:04.139Z,100811.69
2023-02-15T18:57:31.595Z,100814.88
2023-02-15T19:03:00.094Z,100822.22
2023-02-15T19:05:30.325Z,100822.00
2023-02-15T19:07:58.394Z,100821.66
2023-02-15T19:10:26.932Z,100816.69
2023-02-15T19:12:56.003Z,100820.91
2023-02-15T19:15:25.822Z,100819.38
2023-02-15T19:17:53.527Z,100813.13
2023-02-15T19:20:23.198Z,100816.84
2023-02-15T19:22:53.266Z,100810.66
2023-02-15T19:25:23.224Z,100810.22
2023-02-15T19:27:50.964Z,100808.75
2023-02-15T19:30:19.969Z,100816.94
2023-02-15T19:32:47.442Z,100810.31
2023-02-15T19:35:15.945Z,100815.03
2023-02-15T19:37:45.427Z,100815.56
2023-02-15T19:40:21.400Z,100816.19
2023-02-15T19:42:48.994Z,100823.16
2023-02-15T19:47:57.463Z,100825.78
2023-02-15T19:50:26.502Z,100816.31
2023-02-15T19:52:53.971Z,100816.28
2023-02-15T19:58:24.233Z,100819.66
2023-02-15T20:00:52.725Z,100833.22
2023-02-15T20:03:21.896Z,100829.63
2023-02-15T20:05:49.833Z,100834.06
2023-02-15T20:08:19.254Z,100842.09
2023-02-15T20:10:46.918Z,100834.72
2023-02-15T20:13:15.753Z,100837.56
2023-02-15T20:16:07.167Z,100840.44
2023-02-15T20:18:36.074Z,100840.97
2023-02-15T20:21:04.695Z,100848.88
2023-02-15T20:23:35.092Z,100852.97
2023-02-15T20:26:04.020Z,100855.81
2023-02-15T20:28:32.490Z,100845.75
2023-02-15T20:31:00.538Z,100847.63
2023-02-15T20:33:28.121Z,100856.84
2023-02-15T20:35:57.008Z,100853.91
2023-02-15T20:38:26.663Z,100855.97
2023-02-15T20:43:25.496Z,100846.97
2023-02-15T20:45:52.925Z,100847.47
2023-02-15T20:48:20.394Z,100841.47
2023-02-15T20:50:47.847Z,100847.78
2023-02-15T20:53:16.651Z,100843.28
2023-02-15T20:55:44.058Z,100834.06
2023-02-15T20:58:21.142Z,100835.75
2023-02-15T21:00:48.711Z,100829.56
2023-02-15T21:03:22.290Z,100836.72
2023-02-15T21:05:50.411Z,100833.13
2023-02-15T21:08:21.725Z,100829.78
2023-02-15T21:10:50.887Z,100827.25
2023-02-15T21:13:22.084Z,100826.78
2023-02-15T21:15:50.002Z,100831.25
2023-02-15T21:18:20.487Z,100829.97
2023-02-15T21:20:50.108Z,100834.66
2023-02-15T21:23:21.669Z,100838.75
2023-02-15T21:25:49.317Z,100840.75
2023-02-15T21:28:19.651Z,100837.09
2023-02-15T21:30:47.525Z,100826.94
2023-02-15T21:33:15.225Z,100830.84
2023-02-15T21:35:43.230Z,100833.97
2023-02-15T21:38:14.832Z,100840.00
2023-02-15T21:40:44.371Z,100839.50
2023-02-15T21:43:33.936Z,100842.81
2023-02-15T21:46:23.784Z,100843.38
2023-02-15T21:48:51.277Z,100845.19
2023-02-15T21:51:36.069Z,100851.81
2023-02-15T21:54:03.471Z,100852.56
2023-02-15T21:56:32.295Z,100857.31
2023-02-15T21:58:59.708Z,100863.34
2023-02-15T22:01:28.607Z,100859.38
2023-02-15T22:06:45.005Z,100863.19
2023-02-15T22:09:16.815Z,100863.53
2023-02-15T22:11:46.030Z,100856.25
2023-02-15T22:14:34.019Z,100845.84
2023-02-15T22:20:00.032Z,100852.44
2023-02-15T22:22:29.993Z,100846.19
2023-02-15T22:24:57.604Z,100847.41
2023-02-15T22:27:28.109Z,100845.91
2023-02-15T22:32:53.863Z,100845.03
2023-02-15T22:35:24.607Z,100844.25
2023-02-15T22:37:52.051Z,100848.59
2023-02-15T22:40:20.754Z,100844.41
2023-02-15T22:45:48.389Z,100853.41
2023-02-15T22:48:20.033Z,100853.84
2023-02-15T22:53:46.034Z,100853.06
2023-02-15T22:59:18.403Z,100845.78
2023-02-15T23:01:47.814Z,100850.28
2023-02-15T23:07:15.719Z,100865.41
2023-02-15T23:09:43.373Z,100855.78
2023-02-15T23:12:24.291Z,100857.56
2023-02-15T23:14:54.468Z,100862.78
2023-02-15T23:20:30.719Z,100847.31
2023-02-15T23:22:58.120Z,100847.16
2023-02-15T23:25:27.907Z,100853.59
2023-02-15T23:27:57.829Z,100843.19
2023-02-15T23:30:25.330Z,100855.56
2023-02-15T23:32:53.255Z,100852.28
2023-02-15T23:38:25.672Z,100846.38
2023-02-15T23:44:04.899Z,100857.75
2023-02-15T23:46:39.678Z,100857.78
2023-02-15T23:49:14.670Z,100855.34
2023-02-15T23:54:46.317Z,100859.81
2023-02-15T23:57:14.001Z,100855.00
2023-02-15T23:59:43.072Z,100851.00
